sensor_id;sensor_type;location;lat;lon;timestamp;pressure;altitude;pressure_sealevel;temperature;humidity
15263;BME280;7733;51.554;13.590;2022-09-12T00:00:00;100628.66;;;16.77;100.00
15263;BME280;7733;51.554;13.590;2022-09-12T00:02:26;100629.16;;;16.61;100.00
15263;BME280;7733;51.554;13.590;2022-09-12T00:04:52;100625.50;;;16.65;100.00
15263;BME280;7733;51.554;13.590;2022-09-12T00:07:18;100628.97;;;16.41;100.00
15263;BME280;7733;51.554;13.590;2022-09-12T00:09:43;100628.28;;;16.36;100.00
15263;BME280;7733;51.554;13.590;2022-09-12T00:12:09;100620.81;;;16.73;100.00
15263;BME280;7733;51.554;13.590;2022-09-12T00:14:35;100623.16;;;16.56;100.00
15263;BME280;7733;51.554;13.590;2022-09-12T00:17:00;100622.00;;;16.38;100.00
15263;BME280;7733;51.554;13.590;2022-09-12T00:19:28;100632.66;;;16.63;100.00
15263;BME280;7733;51.554;13.590;2022-09-12T00:21:54;100634.06;;;16.21;100.00
15263;BME280;7733;51.554;13.590;2022-09-12T00:24:20;100625.13;;;16.25;100.00
15263;BME280;7733;51.554;13.590;2022-09-12T00:26:47;100628.50;;;16.30;100.00
15263;BME280;7733;51.554;13.590;2022-09-12T00:29:19;100627.13;;;16.45;100.00
15263;BME280;7733;51.554;13.590;2022-09-12T00:31:45;100631.22;;;16.53;100.00
15263;BME280;7733;51.554;13.590;2022-09-12T00:34:11;100626.03;;;16.50;100.00
15263;BME280;7733;51.554;13.590;2022-09-12T00:36:38;100625.06;;;16.53;100.00
15263;BME280;7733;51.554;13.590;2022-09-12T00:39:04;100624.94;;;16.56;100.00
15263;BME280;7733;51.554;13.590;2022-09-12T00:41:34;100609.00;;;16.57;100.00
15263;BME280;7733;51.554;13.590;2022-09-12T00:47:18;100618.03;;;16.52;100.00
15263;BME280;7733;51.554;13.590;2022-09-12T00:50:07;100614.94;;;16.39;100.00
15263;BME280;7733;51.554;13.590;2022-09-12T00:52:45;100613.00;;;16.44;100.00
15263;BME280;7733;51.554;13.590;2022-09-12T00:55:22;100611.94;;;16.50;100.00
15263;BME280;7733;51.554;13.590;2022-09-12T01:00:45;100610.88;;;16.29;100.00
15263;BME280;7733;51.554;13.590;2022-09-12T01:03:15;100610.88;;;16.29;100.00
15263;BME280;7733;51.554;13.590;2022-09-12T01:06:12;100601.56;;;16.43;100.00
15263;BME280;7733;51.554;13.590;2022-09-12T01:08:42;100600.34;;;16.52;100.00
15263;BME280;7733;51.554;13.590;2022-09-12T01:11:11;100598.78;;;16.47;100.00
15263;BME280;7733;51.554;13.590;2022-09-12T01:13:38;100607.50;;;16.50;100.00
15263;BME280;7733;51.554;13.590;2022-09-12T01:16:05;100607.59;;;16.47;100.00
15263;BME280;7733;51.554;13.590;2022-09-12T01:22:09;100595.41;;;16.17;100.00
15263;BME280;7733;51.554;13.590;2022-09-12T01:31:14;100606.31;;;16.07;100.00
15263;BME280;7733;51.554;13.590;2022-09-12T01:34:24;100597.56;;;16.05;100.00
15263;BME280;7733;51.554;13.590;2022-09-12T01:37:08;100598.59;;;16.00;100.00
15263;BME280;7733;51.554;13.590;2022-09-12T01:40:34;100601.59;;;16.16;100.00
15263;BME280;7733;51.554;13.590;2022-09-12T01:43:22;100594.50;;;15.91;100.00
15263;BME280;7733;51.554;13.590;2022-09-12T01:46:16;100596.44;;;15.86;100.00
15263;BME280;7733;51.554;13.590;2022-09-12T01:48:54;100608.66;;;15.62;100.00
15263;BME280;7733;51.554;13.590;2022-09-12T01:51:31;100602.78;;;15.51;100.00
15263;BME280;7733;51.554;13.590;2022-09-12T01:54:16;100604.13;;;15.66;100.00
15263;BME280;7733;51.554;13.590;2022-09-12T01:56:48;100593.53;;;15.94;100.00
15263;BME280;7733;51.554;13.590;2022-09-12T01:59:24;100590.56;;;15.76;100.00
15263;BME280;7733;51.554;13.590;2022-09-12T02:02:01;100597.97;;;15.65;100.00
15263;BME280;7733;51.554;13.590;2022-09-12T02:04:42;100594.31;;;15.40;100.00
15263;BME280;7733;51.554;13.590;2022-09-12T02:07:19;100591.19;;;15.55;100.00
15263;BME280;7733;51.554;13.590;2022-09-12T02:09:56;100594.69;;;15.56;100.00
15263;BME280;7733;51.554;13.590;2022-09-12T02:12:31;100595.47;;;15.00;100.00
15263;BME280;7733;51.554;13.590;2022-09-12T02:15:06;100588.44;;;15.60;100.00
15263;BME280;7733;51.554;13.590;2022-09-12T02:17:39;100592.84;;;15.59;100.00
15263;BME280;7733;51.554;13.590;2022-09-12T02:20:15;100593.06;;;15.51;100.00
15263;BME280;7733;51.554;13.590;2022-09-12T02:22:45;100588.97;;;15.71;100.00
15263;BME280;7733;51.554;13.590;2022-09-12T02:25:17;100585.41;;;15.72;100.00
15263;BME280;7733;51.554;13.590;2022-09-12T02:27:50;100592.84;;;15.59;100.00
15263;BME280;7733;51.554;13.590;2022-09-12T02:30:18;100588.38;;;15.04;100.00
15263;BME280;7733;51.554;13.590;2022-09-12T02:33:00;100589.69;;;14.87;100.00
15263;BME280;7733;51.554;13.590;2022-09-12T02:35:38;100595.28;;;15.08;100.00
15263;BME280;7733;51.554;13.590;2022-09-12T02:38:47;100591.69;;;15.10;100.00
15263;BME280;7733;51.554;13.590;2022-09-12T02:41:18;100592.25;;;14.90;100.00
15263;BME280;7733;51.554;13.590;2022-09-12T02:43:47;100592.44;;;14.84;100.00
15263;BME280;7733;51.554;13.590;2022-09-12T02:46:27;100591.63;;;14.82;100.00
15263;BME280;7733;51.554;13.590;2022-09-12T02:48:56;100587.53;;;14.71;100.00
15263;BME280;7733;51.554;13.590;2022-09-12T02:51:23;100597.63;;;14.87;100.00
15263;BME280;7733;51.554;13.590;2022-09-12T02:53:50;100595.44;;;15.03;100.00
15263;BME280;7733;51.554;13.590;2022-09-12T02:56:27;100592.19;;;15.23;100.00
15263;BME280;7733;51.554;13.590;2022-09-12T02:58:59;100579.91;;;15.20;100.00
15263;BME280;7733;51.554;13.590;2022-09-12T03:01:52;100591.13;;;14.99;100.00
15263;BME280;7733;51.554;13.590;2022-09-12T03:05:06;100591.34;;;14.91;100.00
15263;BME280;7733;51.554;13.590;2022-09-12T03:08:12;100592.25;;;14.90;100.00
15263;BME280;7733;51.554;13.590;2022-09-12T03:11:23;100593.91;;;14.64;100.00
15263;BME280;7733;51.554;13.590;2022-09-12T03:14:17;100600.53;;;14.46;100.00
15263;BME280;7733;51.554;13.590;2022-09-12T03:25:22;100612.06;;;14.42;100.00
15263;BME280;7733;51.554;13.590;2022-09-12T03:27:57;100609.53;;;14.71;100.00
15263;BME280;7733;51.554;13.590;2022-09-12T03:30:24;100609.88;;;14.57;100.00
15263;BME280;7733;51.554;13.590;2022-09-12T03:32:52;100599.72;;;14.41;100.00
15263;BME280;7733;51.554;13.590;2022-09-12T03:35:22;100609.44;;;14.74;100.00
15263;BME280;7733;51.554;13.590;2022-09-12T03:37:49;100607.81;;;15.00;100.00
15263;BME280;7733;51.554;13.590;2022-09-12T03:40:15;100603.84;;;15.16;100.00
15263;BME280;7733;51.554;13.590;2022-09-12T03:42:41;100589.22;;;15.04;100.00
15263;BME280;7733;51.554;13.590;2022-09-12T03:45:08;100600.63;;;15.06;100.00
15263;BME280;7733;51.554;13.590;2022-09-12T03:47:34;100600.41;;;14.81;100.00
15263;BME280;7733;51.554;13.590;2022-09-12T03:50:01;100601.78;;;14.65;100.00
15263;BME280;7733;51.554;13.590;2022-09-12T03:52:27;100606.88;;;14.71;100.00
15263;BME280;7733;51.554;13.590;2022-09-12T03:54:52;100590.84;;;14.77;100.00
15263;BME280;7733;51.554;13.590;2022-09-12T03:57:18;100598.59;;;14.85;100.00
15263;BME280;7733;51.554;13.590;2022-09-12T03:59:44;100602.66;;;14.66;100.00
15263;BME280;7733;51.554;13.590;2022-09-12T04:02:09;100595.28;;;14.77;100.00
15263;BME280;7733;51.554;13.590;2022-09-12T04:04:39;100602.09;;;14.85;100.00
15263;BME280;7733;51.554;13.590;2022-09-12T04:07:07;100600.41;;;14.81;100.00
15263;BME280;7733;51.554;13.590;2022-09-12T04:09:33;100607.06;;;14.65;100.00
15263;BME280;7733;51.554;13.590;2022-09-12T04:11:58;100604.38;;;14.98;100.00
15263;BME280;7733;51.554;13.590;2022-09-12T04:14:24;100605.03;;;15.06;100.00
15263;BME280;7733;51.554;13.590;2022-09-12T04:16:50;100610.31;;;15.06;100.00
15263;BME280;7733;51.554;13.590;2022-09-12T04:19:15;100612.78;;;15.12;100.00
15263;BME280;7733;51.554;13.590;2022-09-12T04:21:41;100600.19;;;14.90;100.00
15263;BME280;7733;51.554;13.590;2022-09-12T04:24:06;100601.50;;;15.35;100.00
15263;BME280;7733;51.554;13.590;2022-09-12T04:26:32;100603.44;;;15.30;100.00
15263;BME280;7733;51.554;13.590;2022-09-12T04:28:58;100601.91;;;15.50;100.00
15263;BME280;7733;51.554;13.590;2022-09-12T04:31:25;100595.72;;;15.51;100.00
15263;BME280;7733;51.554;13.590;2022-09-12T04:33:56;100600.66;;;15.34;100.00
15263;BME280;7733;51.554;13.590;2022-09-12T04:36:23;100608.03;;;15.52;100.00
15263;BME280;7733;51.554;13.590;2022-09-12T04:38:50;100610.13;;;15.41;100.00
15263;BME280;7733;51.554;13.590;2022-09-12T04:41:23;100606.75;;;15.36;100.00
15263;BME280;7733;51.554;13.590;2022-09-12T04:44:09;100608.00;;;15.25;100.00
15263;BME280;7733;51.554;13.590;2022-09-12T04:46:40;100605.94;;;15.34;100.00
15263;BME280;7733;51.554;13.590;2022-09-12T04:49:06;100609.63;;;15.29;100.00
15263;BME280;7733;51.554;13.590;2022-09-12T04:51:35;100609.84;;;15.50;100.00
15263;BME280;7733;51.554;13.590;2022-09-12T04:54:15;100611.03;;;15.11;100.00
15263;BME280;7733;51.554;13.590;2022-09-12T04:56:44;100616.84;;;15.24;100.00
15263;BME280;7733;51.554;13.590;2022-09-12T04:59:12;100619.34;;;15.28;100.00
15263;BME280;7733;51.554;13.590;2022-09-12T05:01:39;100616.88;;;15.51;100.00
15263;BME280;7733;51.554;13.590;2022-09-12T05:04:04;100625.44;;;15.30;100.00
15263;BME280;7733;51.554;13.590;2022-09-12T05:06:35;100611.47;;;15.55;100.00
15263;BME280;7733;51.554;13.590;2022-09-12T05:09:04;100615.63;;;15.65;100.00
15263;BME280;7733;51.554;13.590;2022-09-12T05:11:34;100620.28;;;15.55;100.00
15263;BME280;7733;51.554;13.590;2022-09-12T05:14:00;100616.00;;;15.51;100.00
15263;BME280;7733;51.554;13.590;2022-09-12T05:16:27;100620.59;;;15.74;100.00
15263;BME280;7733;51.554;13.590;2022-09-12T05:18:55;100615.53;;;15.68;100.00
15263;BME280;7733;51.554;13.590;2022-09-12T05:21:22;100621.03;;;15.60;100.00
15263;BME280;7733;51.554;13.590;2022-09-12T05:23:52;100629.75;;;15.64;100.00
15263;BME280;7733;51.554;13.590;2022-09-12T05:26:19;100632.16;;;15.42;100.00
15263;BME280;7733;51.554;13.590;2022-09-12T05:28:46;100640.69;;;15.20;100.00
15263;BME280;7733;51.554;13.590;2022-09-12T05:31:25;100638.75;;;15.27;100.00
15263;BME280;7733;51.554;13.590;2022-09-12T05:33:54;100642.56;;;15.17;100.00
15263;BME280;7733;51.554;13.590;2022-09-12T05:36:28;100631.97;;;15.48;100.00
15263;BME280;7733;51.554;13.590;2022-09-12T05:38:55;100640.59;;;15.25;100.00
15263;BME280;7733;51.554;13.590;2022-09-12T05:41:27;100641.25;;;15.32;100.00
15263;BME280;7733;51.554;13.590;2022-09-12T05:44:03;100639.28;;;15.38;100.00
15263;BME280;7733;51.554;13.590;2022-09-12T05:46:42;100645.59;;;15.34;100.00
15263;BME280;7733;51.554;13.590;2022-09-12T05:49:11;100644.63;;;15.37;100.00
15263;BME280;7733;51.554;13.590;2022-09-12T05:51:40;100635.88;;;15.66;100.00
15263;BME280;7733;51.554;13.590;2022-09-12T05:54:09;100639.84;;;15.79;100.00
15263;BME280;7733;51.554;13.590;2022-09-12T05:56:39;100638.31;;;15.72;100.00
15263;BME280;7733;51.554;13.590;2022-09-12T05:59:11;100641.00;;;15.98;100.00
15263;BME280;7733;51.554;13.590;2022-09-12T06:01:38;100640.72;;;15.50;100.00
15263;BME280;7733;51.554;13.590;2022-09-12T06:04:05;100640.06;;;15.99;100.00
15263;BME280;7733;51.554;13.590;2022-09-12T06:06:35;100638.59;;;15.91;100.00
15263;BME280;7733;51.554;13.590;2022-09-12T06:09:04;100639.78;;;16.08;100.00
15263;BME280;7733;51.554;13.590;2022-09-12T06:11:33;100642.78;;;15.70;100.00
15263;BME280;7733;51.554;13.590;2022-09-12T06:14:00;100642.47;;;15.79;100.00
15263;BME280;7733;51.554;13.590;2022-09-12T06:16:30;100642.22;;;15.88;100.00
15263;BME280;7733;51.554;13.590;2022-09-12T06:19:02;100655.72;;;15.49;100.00
15263;BME280;7733;51.554;13.590;2022-09-12T06:21:29;100650.00;;;15.93;100.00
15263;BME280;7733;51.554;13.590;2022-09-12T06:23:59;100653.59;;;15.90;100.00
15263;BME280;7733;51.554;13.590;2022-09-12T06:26:27;100653.84;;;15.82;100.00
15263;BME280;7733;51.554;13.590;2022-09-12T06:28:55;100655.19;;;15.96;100.00
15263;BME280;7733;51.554;13.590;2022-09-12T06:31:33;100662.09;;;16.00;100.00
15263;BME280;7733;51.554;13.590;2022-09-12T06:34:07;100670.72;;;15.78;100.00
15263;BME280;7733;51.554;13.590;2022-09-12T06:36:39;100666.47;;;16.02;100.00
15263;BME280;7733;51.554;13.590;2022-09-12T06:39:14;100670.09;;;15.98;100.00
15263;BME280;7733;51.554;13.590;2022-09-12T06:41:40;100668.66;;;15.88;100.00
15263;BME280;7733;51.554;13.590;2022-09-12T06:44:06;100667.78;;;16.16;100.00
15263;BME280;7733;51.554;13.590;2022-09-12T06:46:32;100677.22;;;15.96;100.00
15263;BME280;7733;51.554;13.590;2022-09-12T06:48:59;100675.69;;;15.89;100.00
15263;BME280;7733;51.554;13.590;2022-09-12T06:51:27;100673.19;;;16.12;100.00
15263;BME280;7733;51.554;13.590;2022-09-12T06:53:56;100671.66;;;16.32;100.00
15263;BME280;7733;51.554;13.590;2022-09-12T06:56:26;100671.94;;;16.24;100.00
15263;BME280;7733;51.554;13.590;2022-09-12T06:58:54;100682.34;;;16.01;100.00
15263;BME280;7733;51.554;13.590;2022-09-12T07:01:26;100678.16;;;16.22;100.00
15263;BME280;7733;51.554;13.590;2022-09-12T07:03:58;100683.81;;;16.11;100.00
15263;BME280;7733;51.554;13.590;2022-09-12T07:06:28;100671.41;;;16.39;100.00
15263;BME280;7733;51.554;13.590;2022-09-12T07:08:59;100676.03;;;16.33;100.00
15263;BME280;7733;51.554;13.590;2022-09-12T07:11:30;100677.16;;;16.52;100.00
15263;BME280;7733;51.554;13.590;2022-09-12T07:13:58;100678.78;;;16.30;100.00
15263;BME280;7733;51.554;13.590;2022-09-12T07:16:24;100679.50;;;16.08;100.00
15263;BME280;7733;51.554;13.590;2022-09-12T07:18:52;100682.13;;;16.08;100.00
15263;BME280;7733;51.554;13.590;2022-09-12T07:21:19;100680.06;;;16.45;100.00
15263;BME280;7733;51.554;13.590;2022-09-12T07:23:45;100675.69;;;15.89;100.00
15263;BME280;7733;51.554;13.590;2022-09-12T07:26:13;100685.50;;;16.40;100.00
15263;BME280;7733;51.554;13.590;2022-09-12T07:28:40;100681.53;;;16.80;100.00
15263;BME280;7733;51.554;13.590;2022-09-12T07:31:13;100680.00;;;16.97;100.00
15263;BME280;7733;51.554;13.590;2022-09-12T07:33:40;100673.19;;;17.15;100.00
15263;BME280;7733;51.554;13.590;2022-09-12T07:36:13;100672.97;;;17.21;100.00
15263;BME280;7733;51.554;13.590;2022-09-12T07:38:39;100669.84;;;17.10;100.00
15263;BME280;7733;51.554;13.590;2022-09-12T07:41:18;100670.78;;;17.32;100.00
15263;BME280;7733;51.554;13.590;2022-09-12T07:43:46;100669.66;;;17.61;100.00
15263;BME280;7733;51.554;13.590;2022-09-12T07:46:12;100671.47;;;17.61;100.00
15263;BME280;7733;51.554;13.590;2022-09-12T07:48:39;100677.13;;;17.52;100.00
15263;BME280;7733;51.554;13.590;2022-09-12T07:51:08;100677.25;;;17.72;100.00
15263;BME280;7733;51.554;13.590;2022-09-12T07:53:40;100676.75;;;17.61;100.00
15263;BME280;7733;51.554;13.590;2022-09-12T07:56:08;100675.34;;;17.76;100.00
15263;BME280;7733;51.554;13.590;2022-09-12T07:58:36;100676.28;;;17.75;100.00
15263;BME280;7733;51.554;13.590;2022-09-12T08:01:07;100673.50;;;18.00;100.00
15263;BME280;7733;51.554;13.590;2022-09-12T08:03:34;100672.56;;;18.02;100.00
15263;BME280;7733;51.554;13.590;2022-09-12T08:08:36;100672.03;;;17.92;100.00
15263;BME280;7733;51.554;13.590;2022-09-12T08:11:09;100676.38;;;17.48;100.00
15263;BME280;7733;51.554;13.590;2022-09-12T08:13:37;100671.59;;;17.81;100.00
15263;BME280;7733;51.554;13.590;2022-09-12T08:16:07;100677.47;;;17.89;100.00
15263;BME280;7733;51.554;13.590;2022-09-12T08:18:36;100680.53;;;17.55;100.00
15263;BME280;7733;51.554;13.590;2022-09-12T08:21:08;100672.59;;;18.01;100.00
15263;BME280;7733;51.554;13.590;2022-09-12T08:23:34;100673.44;;;18.45;100.00
15263;BME280;7733;51.554;13.590;2022-09-12T08:26:03;100679.72;;;18.22;100.00
15263;BME280;7733;51.554;13.590;2022-09-12T08:28:32;100675.25;;;18.44;100.00
15263;BME280;7733;51.554;13.590;2022-09-12T08:31:08;100677.69;;;18.49;100.00
15263;BME280;7733;51.554;13.590;2022-09-12T08:33:35;100676.72;;;18.30;100.00
15263;BME280;7733;51.554;13.590;2022-09-12T08:36:18;100679.19;;;18.76;100.00
15263;BME280;7733;51.554;13.590;2022-09-12T08:38:48;100684.16;;;19.25;100.00
15263;BME280;7733;51.554;13.590;2022-09-12T08:44:10;100677.41;;;19.36;100.00
15263;BME280;7733;51.554;13.590;2022-09-12T08:47:25;100679.91;;;19.21;100.00
15263;BME280;7733;51.554;13.590;2022-09-12T08:53:13;100677.16;;;19.80;96.21
15263;BME280;7733;51.554;13.590;2022-09-12T08:55:56;100678.19;;;19.59;99.78
15263;BME280;7733;51.554;13.590;2022-09-12T08:58:25;100675.34;;;19.43;99.33
15263;BME280;7733;51.554;13.590;2022-09-12T09:01:09;100671.59;;;19.67;99.54
15263;BME280;7733;51.554;13.590;2022-09-12T09:07:37;100654.38;;;20.81;95.79
15263;BME280;7733;51.554;13.590;2022-09-12T09:10:29;100649.19;;;20.95;93.13
15263;BME280;7733;51.554;13.590;2022-09-12T09:16:43;100661.94;;;20.37;88.35
15263;BME280;7733;51.554;13.590;2022-09-12T09:19:33;100667.38;;;19.81;92.32
15263;BME280;7733;51.554;13.590;2022-09-12T09:22:30;100655.22;;;19.75;94.00
15263;BME280;7733;51.554;13.590;2022-09-12T09:25:05;100652.25;;;20.00;90.86
15263;BME280;7733;51.554;13.590;2022-09-12T09:27:49;100649.72;;;20.33;89.60
15263;BME280;7733;51.554;13.590;2022-09-12T09:30:20;100646.19;;;20.15;88.92
15263;BME280;7733;51.554;13.590;2022-09-12T09:32:52;100656.72;;;19.81;91.43
15263;BME280;7733;51.554;13.590;2022-09-12T09:35:44;100644.69;;;20.46;90.42
15263;BME280;7733;51.554;13.590;2022-09-12T09:38:28;100649.50;;;20.01;88.44
15263;BME280;7733;51.554;13.590;2022-09-12T09:41:20;100647.97;;;20.51;88.53
15263;BME280;7733;51.554;13.590;2022-09-12T09:43:48;100647.94;;;20.33;88.94
15263;BME280;7733;51.554;13.590;2022-09-12T09:46:14;100646.13;;;20.34;90.03
15263;BME280;7733;51.554;13.590;2022-09-12T09:48:45;100644.25;;;21.21;87.01
15263;BME280;7733;51.554;13.590;2022-09-12T09:51:16;100638.13;;;21.36;85.96
15263;BME280;7733;51.554;13.590;2022-09-12T09:53:49;100646.09;;;20.87;86.34
15263;BME280;7733;51.554;13.590;2022-09-12T09:56:30;100646.00;;;21.22;85.56
15263;BME280;7733;51.554;13.590;2022-09-12T09:59:27;100658.81;;;20.82;83.70
15263;BME280;7733;51.554;13.590;2022-09-12T10:04:41;100649.16;;;20.09;85.45
15263;BME280;7733;51.554;13.590;2022-09-12T10:07:21;100645.25;;;20.33;84.95
15263;BME280;7733;51.554;13.590;2022-09-12T10:10:16;100652.47;;;20.31;85.48
15263;BME280;7733;51.554;13.590;2022-09-12T10:12:42;100650.31;;;20.74;82.27
15263;BME280;7733;51.554;13.590;2022-09-12T10:15:24;100640.59;;;20.73;82.57
15263;BME280;7733;51.554;13.590;2022-09-12T10:17:53;100641.31;;;21.27;78.03
15263;BME280;7733;51.554;13.590;2022-09-12T10:20:38;100642.09;;;21.29;79.47
15263;BME280;7733;51.554;13.590;2022-09-12T10:23:35;100637.94;;;21.23;77.24
15263;BME280;7733;51.554;13.590;2022-09-12T10:26:08;100636.44;;;20.85;81.03
15263;BME280;7733;51.554;13.590;2022-09-12T10:28:40;100648.91;;;20.67;85.01
15263;BME280;7733;51.554;13.590;2022-09-12T10:31:10;100629.06;;;20.55;82.37
15263;BME280;7733;51.554;13.590;2022-09-12T10:33:47;100637.47;;;20.82;81.18
15263;BME280;7733;51.554;13.590;2022-09-12T10:36:19;100638.97;;;20.53;81.95
15263;BME280;7733;51.554;13.590;2022-09-12T10:38:51;100637.94;;;20.56;85.33
15263;BME280;7733;51.554;13.590;2022-09-12T10:41:18;100640.06;;;20.13;84.42
15263;BME280;7733;51.554;13.590;2022-09-12T10:43:46;100640.63;;;19.84;82.10
15263;BME280;7733;51.554;13.590;2022-09-12T10:48:49;100636.44;;;19.97;82.17
15263;BME280;7733;51.554;13.590;2022-09-12T10:53:55;100625.72;;;20.52;79.59
15263;BME280;7733;51.554;13.590;2022-09-12T10:56:28;100621.19;;;21.04;77.44
15263;BME280;7733;51.554;13.590;2022-09-12T10:59:12;100623.63;;;20.91;78.54
15263;BME280;7733;51.554;13.590;2022-09-12T11:02:00;100621.97;;;21.22;76.05
15263;BME280;7733;51.554;13.590;2022-09-12T11:08:08;100624.75;;;20.70;78.61
15263;BME280;7733;51.554;13.590;2022-09-12T11:10:51;100619.31;;;21.22;77.75
15263;BME280;7733;51.554;13.590;2022-09-12T11:23:13;100610.88;;;21.63;74.59
15263;BME280;7733;51.554;13.590;2022-09-12T11:26:11;100612.75;;;21.61;75.30
15263;BME280;7733;51.554;13.590;2022-09-12T11:29:14;100609.91;;;21.79;72.08
15263;BME280;7733;51.554;13.590;2022-09-12T11:40:53;100606.81;;;21.87;74.05
15263;BME280;7733;51.554;13.590;2022-09-12T11:43:42;100605.41;;;22.11;73.89
15263;BME280;7733;51.554;13.590;2022-09-12T11:46:33;100601.66;;;21.84;73.90
15263;BME280;7733;51.554;13.590;2022-09-12T11:54:47;100606.00;;;22.16;73.54
15263;BME280;7733;51.554;13.590;2022-09-12T12:05:30;100605.09;;;21.70;72.45
15263;BME280;7733;51.554;13.590;2022-09-12T12:08:04;100603.28;;;22.32;69.89
15263;BME280;7733;51.554;13.590;2022-09-12T12:10:39;100595.84;;;22.37;71.42
15263;BME280;7733;51.554;13.590;2022-09-12T12:13:21;100602.06;;;22.68;70.00
15263;BME280;7733;51.554;13.590;2022-09-12T12:15:53;100602.34;;;22.63;70.90
15263;BME280;7733;51.554;13.590;2022-09-12T12:18:32;100596.75;;;22.52;70.03
15263;BME280;7733;51.554;13.590;2022-09-12T12:29:07;100587.84;;;22.37;69.37
15263;BME280;7733;51.554;13.590;2022-09-12T12:34:36;100579.81;;;22.82;66.30
15263;BME280;7733;51.554;13.590;2022-09-12T12:48:21;100552.84;;;23.95;64.44
15263;BME280;7733;51.554;13.590;2022-09-12T12:50:47;100554.84;;;24.06;63.25
15263;BME280;7733;51.554;13.590;2022-09-12T12:53:24;100557.78;;;24.02;63.29
15263;BME280;7733;51.554;13.590;2022-09-12T12:55:53;100547.91;;;23.89;63.09
15263;BME280;7733;51.554;13.590;2022-09-12T12:58:34;100555.47;;;24.22;62.94
15263;BME280;7733;51.554;13.590;2022-09-12T13:01:20;100556.44;;;23.82;62.67
15263;BME280;7733;51.554;13.590;2022-09-12T13:04:12;100553.00;;;24.07;63.41
15263;BME280;7733;51.554;13.590;2022-09-12T13:06:42;100542.00;;;23.84;62.60
15263;BME280;7733;51.554;13.590;2022-09-12T13:09:38;100546.31;;;23.46;63.30
15263;BME280;7733;51.554;13.590;2022-09-12T13:12:26;100541.75;;;23.19;64.08
15263;BME280;7733;51.554;13.590;2022-09-12T13:14:56;100544.63;;;22.73;63.09
15263;BME280;7733;51.554;13.590;2022-09-12T13:17:37;100543.50;;;22.63;63.97
15263;BME280;7733;51.554;13.590;2022-09-12T13:20:23;100540.81;;;22.63;63.19
15263;BME280;7733;51.554;13.590;2022-09-12T13:22:51;100536.25;;;22.94;63.09
15263;BME280;7733;51.554;13.590;2022-09-12T13:25:33;100545.28;;;23.34;61.74
15263;BME280;7733;51.554;13.590;2022-09-12T13:30:42;100542.06;;;22.72;64.34
15263;BME280;7733;51.554;13.590;2022-09-12T13:33:26;100532.78;;;23.61;62.34
15263;BME280;7733;51.554;13.590;2022-09-12T13:39:49;100533.47;;;23.65;59.36
15263;BME280;7733;51.554;13.590;2022-09-12T13:42:46;100542.72;;;23.18;61.46
15263;BME280;7733;51.554;13.590;2022-09-12T13:45:24;100539.84;;;23.21;61.38
15263;BME280;7733;51.554;13.590;2022-09-12T13:47:56;100531.34;;;23.56;61.54
15263;BME280;7733;51.554;13.590;2022-09-12T13:50:40;100531.06;;;23.19;63.18
15263;BME280;7733;51.554;13.590;2022-09-12T13:53:15;100523.78;;;23.21;61.17
15263;BME280;7733;51.554;13.590;2022-09-12T13:55:46;100506.16;;;23.04;60.50
15263;BME280;7733;51.554;13.590;2022-09-12T13:58:26;100531.81;;;23.21;61.14
15263;BME280;7733;51.554;13.590;2022-09-12T14:03:33;100523.63;;;23.65;60.29
15263;BME280;7733;51.554;13.590;2022-09-12T14:06:21;100516.72;;;23.61;58.79
15263;BME280;7733;51.554;13.590;2022-09-12T14:08:47;100514.84;;;23.63;60.01
15263;BME280;7733;51.554;13.590;2022-09-12T14:11:25;100520.00;;;23.52;59.48
15263;BME280;7733;51.554;13.590;2022-09-12T14:13:52;100510.63;;;22.75;61.17
15263;BME280;7733;51.554;13.590;2022-09-12T14:16:21;100517.47;;;23.22;59.97
15263;BME280;7733;51.554;13.590;2022-09-12T14:18:49;100520.56;;;23.16;60.81
15263;BME280;7733;51.554;13.590;2022-09-12T14:23:55;100503.75;;;23.41;60.56
15263;BME280;7733;51.554;13.590;2022-09-12T14:26:22;100504.69;;;23.27;59.26
15263;BME280;7733;51.554;13.590;2022-09-12T14:28:50;100509.47;;;22.80;61.54
15263;BME280;7733;51.554;13.590;2022-09-12T14:31:21;100504.97;;;22.80;61.29
15263;BME280;7733;51.554;13.590;2022-09-12T14:34:07;100497.53;;;23.41;61.13
15263;BME280;7733;51.554;13.590;2022-09-12T14:36:49;100496.31;;;23.73;60.54
15263;BME280;7733;51.554;13.590;2022-09-12T14:39:42;100500.09;;;23.83;58.03
15263;BME280;7733;51.554;13.590;2022-09-12T14:42:17;100491.19;;;23.56;60.74
15263;BME280;7733;51.554;13.590;2022-09-12T14:44:57;100490.09;;;23.46;59.58
15263;BME280;7733;51.554;13.590;2022-09-12T14:47:27;100490.63;;;22.83;61.06
15263;BME280;7733;51.554;13.590;2022-09-12T14:49:58;100488.94;;;23.09;61.63
15263;BME280;7733;51.554;13.590;2022-09-12T14:52:33;100482.41;;;23.54;61.03
15263;BME280;7733;51.554;13.590;2022-09-12T14:57:43;100487.22;;;22.79;62.70
15263;BME280;7733;51.554;13.590;2022-09-12T15:02:46;100475.84;;;22.61;62.21
15263;BME280;7733;51.554;13.590;2022-09-12T15:07:52;100472.16;;;22.92;61.36
15263;BME280;7733;51.554;13.590;2022-09-12T15:10:47;100469.91;;;23.13;63.76
15263;BME280;7733;51.554;13.590;2022-09-12T15:13:20;100473.00;;;23.07;63.73
15263;BME280;7733;51.554;13.590;2022-09-12T15:15:57;100462.50;;;23.04;63.77
15263;BME280;7733;51.554;13.590;2022-09-12T15:18:27;100467.19;;;23.27;63.56
15263;BME280;7733;51.554;13.590;2022-09-12T15:21:01;100462.84;;;23.39;64.44
15263;BME280;7733;51.554;13.590;2022-09-12T15:23:34;100461.78;;;23.42;63.53